Time;durP1;ratioP1;P1;durP2;ratioP2;P2;SDS_P1;SDS_P2;PMS_P1;PMS_P2;Temp;Humidity;BMP_temperature;BMP_pressure;BME280_temperature;BME280_humidity;BME280_pressure;Samples;Min_cycle;Max_cycle;Signal;HPM_P1;HPM_P2
2021/03/13 00:00:35;;;;;;;3.95;0.98;;;;;;;4.11;100.00;95955.09;4972941;28;20104;-81
2021/03/13 00:03:02;;;;;;;2.22;0.80;;;;;;;4.00;100.00;95948.47;4972816;28;20112;-81
2021/03/13 00:05:33;;;;;;;1.92;1.00;;;;;;;3.94;100.00;95917.91;4972869;28;20039;-81
2021/03/13 00:08:00;;;;;;;1.58;0.80;;;;;;;4.17;100.00;95914.59;4971714;28;20073;-81
2021/03/13 00:10:27;;;;;;;3.08;1.38;;;;;;;4.15;100.00;95919.81;4971830;28;20084;-81
2021/03/13 00:12:54;;;;;;;2.65;1.23;;;;;;;4.12;100.00;95906.16;4959660;28;20042;-82
2021/03/13 00:15:21;;;;;;;2.63;1.38;;;;;;;4.19;100.00;95903.88;4972869;28;20042;-82
2021/03/13 00:17:50;;;;;;;3.28;0.80;;;;;;;4.16;100.00;95884.66;4972351;28;20075;-81
2021/03/13 00:20:19;;;;;;;1.92;0.90;;;;;;;4.24;100.00;95900.50;4972737;28;20043;-81
2021/03/13 00:22:48;;;;;;;1.65;0.90;;;;;;;4.35;100.00;95906.34;4941988;28;20054;-81
2021/03/13 00:25:16;;;;;;;2.65;0.98;;;;;;;4.26;100.00;95889.75;4964244;28;20040;-81
2021/03/13 00:27:46;;;;;;;5.43;1.00;;;;;;;4.24;100.00;95874.88;4966063;28;20042;-82
2021/03/13 00:30:21;;;;;;;3.08;1.00;;;;;;;4.27;100.00;95868.44;4960087;28;20034;-82
2021/03/13 00:33:15;;;;;;;0.88;0.80;;;;;;;4.28;100.00;95859.69;4972188;28;20390;-81
2021/03/13 00:35:44;;;;;;;3.00;1.10;;;;;;;4.30;100.00;95861.97;4972693;28;20043;-81
2021/03/13 00:38:11;;;;;;;3.70;1.08;;;;;;;4.33;100.00;95856.28;4955331;28;20050;-81
2021/03/13 00:40:40;;;;;;;2.35;0.90;;;;;;;4.34;100.00;95846.78;4971245;28;20058;-82
2021/03/13 00:43:09;;;;;;;1.65;1.10;;;;;;;4.36;100.00;95849.84;4958779;28;20039;-82
2021/03/13 00:45:36;;;;;;;1.38;0.63;;;;;;;4.37;100.00;95845.88;5055889;28;20394;-82
2021/03/13 00:48:04;;;;;;;0.82;0.75;;;;;;;4.33;100.00;95842.47;4958098;28;20501;-81
2021/03/13 00:50:35;;;;;;;3.28;0.80;;;;;;;4.33;100.00;95828.66;4941708;28;20455;-81
2021/03/13 00:53:03;;;;;;;2.45;0.70;;;;;;;4.24;100.00;95819.59;4971074;28;20053;-81
2021/03/13 00:55:30;;;;;;;3.83;1.17;;;;;;;4.18;100.00;95799.34;4954738;28;20038;-82
2021/03/13 00:58:02;;;;;;;0.73;0.65;;;;;;;4.08;100.00;95804.09;4971135;28;20042;-82
2021/03/13 01:00:35;;;;;;;1.13;0.70;;;;;;;4.22;100.00;95806.25;4954521;28;20047;-82
2021/03/13 01:03:02;;;;;;;2.58;0.70;;;;;;;4.34;100.00;95819.16;4955116;28;20194;-83
2021/03/13 01:05:30;;;;;;;4.25;0.80;;;;;;;4.26;100.00;95789.50;4958261;28;20446;-82
2021/03/13 01:07:57;;;;;;;2.05;0.80;;;;;;;4.25;100.00;95766.66;4957650;28;20042;-83
2021/03/13 01:10:33;;;;;;;3.15;0.60;;;;;;;4.34;100.00;95779.69;4970930;28;20051;-82
2021/03/13 01:13:00;;;;;;;1.67;0.90;;;;;;;4.29;100.00;95722.25;4971911;28;20048;-82
2021/03/13 01:15:27;;;;;;;0.93;0.75;;;;;;;4.33;100.00;95740.22;4944059;28;20039;-82
2021/03/13 01:17:56;;;;;;;1.40;0.82;;;;;;;4.33;100.00;95728.41;4968057;28;20406;-82
2021/03/13 01:20:24;;;;;;;2.08;0.82;;;;;;;4.53;100.00;95759.84;4971829;28;20038;-82
2021/03/13 01:22:53;;;;;;;1.63;0.90;;;;;;;4.40;100.00;95714.28;4970652;28;20043;-82
2021/03/13 01:25:20;;;;;;;4.50;1.02;;;;;;;4.56;100.00;95736.81;4954546;28;20074;-82
2021/03/13 01:27:47;;;;;;;2.15;1.10;;;;;;;4.55;100.00;95728.97;4970451;28;20117;-82
2021/03/13 01:30:21;;;;;;;1.95;1.30;;;;;;;4.51;100.00;95733.91;4954283;28;20039;-82
2021/03/13 01:32:53;;;;;;;2.13;1.10;;;;;;;4.54;100.00;95744.81;4954945;28;20045;-82
2021/03/13 01:35:21;;;;;;;2.60;1.10;;;;;;;4.50;100.00;95726.88;4958852;28;20039;-82
2021/03/13 01:37:49;;;;;;;2.55;0.93;;;;;;;4.32;100.00;95711.06;4958231;28;20046;-82
2021/03/13 01:40:17;;;;;;;2.60;0.70;;;;;;;4.37;100.00;95704.91;4970763;28;20062;-82
2021/03/13 01:42:45;;;;;;;3.35;0.70;;;;;;;4.33;100.00;95718.09;4967167;28;20043;-82
2021/03/13 01:45:20;;;;;;;2.03;0.88;;;;;;;4.21;100.00;95710.00;4983842;28;20047;-81
2021/03/13 01:47:50;;;;;;;1.67;0.70;;;;;;;4.15;100.00;95720.13;4954288;28;20047;-82
2021/03/13 01:50:21;;;;;;;2.13;0.65;;;;;;;4.06;100.00;95726.41;4954156;28;20456;-83
2021/03/13 01:52:50;;;;;;;3.15;0.70;;;;;;;3.81;100.00;95743.28;4970232;28;20103;-82
2021/03/13 01:55:19;;;;;;;0.60;0.60;;;;;;;3.47;100.00;95763.63;4934927;28;20038;-82
2021/03/13 01:57:51;;;;;;;0.60;0.60;;;;;;;3.09;100.00;95757.66;4954812;28;20042;-82
2021/03/13 02:00:22;;;;;;;;;;;;;;;2.89;100.00;95773.03;4954132;28;20169;-82
2021/03/13 02:02:56;;;;;;;;;;;;;;;2.67;100.00;95773.06;4966345;28;19958;-82
2021/03/13 02:05:35;;;;;;;;;;;;;;;2.65;100.00;95764.47;4955408;28;19922;-81
2021/03/13 02:08:24;;;;;;;1.00;0.70;;;;;;;2.56;100.00;95723.06;4986181;28;19922;-83
2021/03/13 02:10:57;;;;;;;;;;;;;;;2.66;100.00;95759.72;4969189;28;20134;-82
2021/03/13 02:13:28;;;;;;;;;;;;;;;2.70;100.00;95765.88;4956880;28;19926;-82
2021/03/13 02:16:13;;;;;;;;;;;;;;;2.77;100.00;95766.38;4954130;28;19922;-82
2021/03/13 02:18:55;;;;;;;;;;;;;;;2.82;100.00;95916.66;4971255;28;19923;-82
2021/03/13 02:21:31;;;;;;;;;;;;;;;2.89;100.00;95921.94;4954150;28;19982;-81
2021/03/13 02:24:23;;;;;;;;;;;;;;;2.96;100.00;95910.63;4970182;28;20329;-82
2021/03/13 02:27:03;;;;;;;;;;;;;;;3.02;100.00;95922.63;4954081;28;19925;-81
2021/03/13 02:29:42;;;;;;;;;;;;;;;3.09;100.00;95930.66;4955708;28;19949;-82
2021/03/13 02:32:18;;;;;;;;;;;;;;;3.17;100.00;95931.94;4952230;28;19945;-81
2021/03/13 02:34:46;;;;;;;;;;;;;;;3.19;100.00;95933.03;4944180;28;19922;-81
2021/03/13 02:37:16;;;;;;;;;;;;;;;3.25;100.00;95933.22;4952256;28;19922;-81
2021/03/13 02:39:46;;;;;;;;;;;;;;;3.29;100.00;95945.66;4985666;28;20380;-81
2021/03/13 02:42:14;;;;;;;;;;;;;;;3.34;100.00;95942.31;4969422;28;19922;-82
2021/03/13 02:44:43;;;;;;;;;;;;;;;3.32;100.00;95949.50;4954450;28;20392;-81
2021/03/13 02:47:17;;;;;;;;;;;;;;;3.14;100.00;95932.81;4955621;28;19926;-82
2021/03/13 02:49:51;;;;;;;;;;;;;;;2.94;100.00;95937.91;4954363;28;20329;-81
2021/03/13 02:52:25;;;;;;;;;;;;;;;2.75;100.00;95944.47;4954565;28;19922;-82
2021/03/13 02:54:54;;;;;;;;;;;;;;;2.59;100.00;95936.38;4969858;28;19922;-82
2021/03/13 02:57:24;;;;;;;;;;;;;;;2.43;100.00;95951.09;4956764;28;20373;-82
2021/03/13 02:59:52;;;;;;;;;;;;;;;2.28;100.00;95927.19;5020565;28;19922;-82
2021/03/13 03:02:22;;;;;;;;;;;;;;;2.41;100.00;95928.72;4985869;28;19925;-82
2021/03/13 03:04:52;;;;;;;;;;;;;;;2.53;100.00;95932.66;4969584;28;20388;-82
2021/03/13 03:07:23;;;;;;;;;;;;;;;2.59;100.00;95942.66;4969636;28;20054;-82
2021/03/13 03:09:50;;;;;;;;;;;;;;;2.59;100.00;95950.16;4966232;28;20030;-82
2021/03/13 03:12:17;;;;;;;;;;;;;;;2.65;100.00;95937.34;4975791;28;20478;-82
2021/03/13 03:14:51;;;;;;;;;;;;;;;2.67;100.00;95945.94;4940124;28;20407;-82
2021/03/13 03:17:18;;;;;;;;;;;;;;;2.71;100.00;95941.84;4969507;28;20028;-82
2021/03/13 03:19:47;;;;;;;;;;;;;;;2.70;100.00;95936.78;4969431;28;19930;-82
2021/03/13 03:22:16;;;;;;;;;;;;;;;2.70;100.00;95931.25;4970600;28;20002;-82
2021/03/13 03:24:48;;;;;;;;;;;;;;;2.68;100.00;95930.94;4953345;28;19954;-82
2021/03/13 03:27:16;;;;;;;;;;;;;;;2.65;100.00;95923.56;4955863;28;19932;-82
2021/03/13 03:29:46;;;;;;;;;;;;;;;2.66;100.00;95919.59;4973178;28;20385;-82
2021/03/13 03:32:22;;;;;;;;;;;;;;;2.66;100.00;95930.63;4956175;28;20331;-82
2021/03/13 03:34:50;;;;;;;;;;;;;;;2.69;100.00;95929.72;4969307;28;19922;-82
2021/03/13 03:37:17;;;;;;;;;;;;;;;2.61;100.00;95920.94;4939782;28;19922;-82
2021/03/13 03:39:44;;;;;;;;;;;;;;;2.57;100.00;95922.28;4969361;28;20291;-82
2021/03/13 03:42:15;;;;;;;;;;;;;;;2.56;100.00;95909.72;4968814;28;20393;-82
2021/03/13 03:44:46;;;;;;;;;;;;;;;2.55;100.00;95942.00;4962953;28;19929;-82
2021/03/13 03:47:18;;;;;;;;;;;;;;;2.58;100.00;95952.13;4969062;28;19987;-82
2021/03/13 03:49:47;;;;;;;;;;;;;;;2.60;100.00;95955.22;4985365;28;19929;-82
2021/03/13 03:52:47;;;;;;;;;;;;;;;2.62;100.00;95965.81;4968937;28;19922;-82
2021/03/13 03:55:16;;;;;;;;;;;;;;;2.65;100.00;95978.69;4968820;28;19926;-82
2021/03/13 03:57:43;;;;;;;;;;;;;;;2.70;100.00;95975.34;4968897;28;20017;-82
2021/03/13 04:00:10;;;;;;;;;;;;;;;2.69;100.00;95979.34;4970403;28;19922;-82
2021/03/13 04:02:46;;;;;;;;;;;;;;;2.71;100.00;95977.66;4956806;28;20017;-82
2021/03/13 04:05:17;;;;;;;;;;;;;;;2.67;100.00;95988.06;4971291;28;19922;-82
2021/03/13 04:07:44;;;;;;;;;;;;;;;2.65;100.00;95981.47;4963927;28;19928;-82
2021/03/13 04:10:12;;;;;;;;;;;;;;;2.66;100.00;95974.72;4972991;28;19933;-82
2021/03/13 04:12:40;;;;;;;;;;;;;;;2.68;100.00;95973.06;4966246;28;20381;-82
2021/03/13 04:15:08;;;;;;;;;;;;;;;2.70;100.00;95984.41;4972694;28;20091;-82
2021/03/13 04:17:38;;;;;;;;;;;;;;;2.68;100.00;95966.78;4988073;28;19945;-82
2021/03/13 04:20:06;;;;;;;;;;;;;;;2.69;100.00;95974.59;4942412;28;19922;-82
2021/03/13 04:22:33;;;;;;;;;;;;;;;2.69;100.00;95962.81;4973274;28;20491;-81
2021/03/13 04:25:04;;;;;;;;;;;;;;;2.67;100.00;95976.25;4971087;28;20324;-82
2021/03/13 04:27:31;;;;;;;;;;;;;;;2.65;100.00;95964.91;4971857;28;19972;-82
2021/03/13 04:29:58;;;;;;;;;;;;;;;2.68;100.00;95955.75;4969692;28;19945;-82
2021/03/13 04:32:25;;;;;;;;;;;;;;;2.71;100.00;95979.69;4973016;28;20049;-82
2021/03/13 04:35:16;;;;;;;;;;;;;;;2.70;100.00;95976.13;4959894;28;19923;-82
2021/03/13 04:37:44;;;;;;;;;;;;;;;2.65;100.00;95984.22;4962947;28;19922;-82
2021/03/13 04:40:11;;;;;;;;;;;;;;;2.58;100.00;95978.91;4982423;28;19922;-82
2021/03/13 04:42:38;;;;;;;;;;;;;;;2.55;100.00;95980.59;4972774;28;19923;-82
2021/03/13 04:45:08;;;;;;;;;;;;;;;2.58;100.00;96003.72;4971735;28;19925;-82
2021/03/13 04:47:36;;;;;;;;;;;;;;;2.53;100.00;95988.53;4981976;28;20009;-82
2021/03/13 04:50:04;;;;;;;;;;;;;;;2.47;100.00;96011.59;4965385;28;20167;-82
2021/03/13 04:52:31;;;;;;;;;;;;;;;2.31;100.00;96006.19;4955326;28;19933;-82
2021/03/13 04:54:57;;;;;;;;;;;;;;;2.41;100.00;96025.13;4980669;28;19922;-82
2021/03/13 04:57:24;;;;;;;;;;;;;;;2.40;100.00;96017.31;4971226;28;19930;-82
2021/03/13 04:59:51;;;;;;;;;;;;;;;2.42;100.00;96020.41;4960772;28;19926;-82
2021/03/13 05:02:17;;;;;;;;;;;;;;;2.42;100.00;96023.16;4972532;28;19922;-82
2021/03/13 05:04:44;;;;;;;;;;;;;;;2.46;100.00;96015.53;4972581;28;19968;-82
2021/03/13 05:07:10;;;;;;;;;;;;;;;2.52;100.00;96031.09;4972276;28;20266;-82
2021/03/13 05:09:37;;;;;;;;;;;;;;;2.59;100.00;96041.88;4967511;28;20481;-83
2021/03/13 05:12:05;;;;;;;;;;;;;;;2.65;100.00;96039.34;4962511;28;20423;-82
2021/03/13 05:14:31;;;;;;;;;;;;;;;2.61;100.00;96044.19;4972026;28;19926;-82
2021/03/13 05:16:58;;;;;;;;;;;;;;;2.58;100.00;96056.09;4972427;28;19957;-82
2021/03/13 05:19:24;;;;;;;;;;;;;;;2.52;100.00;96052.34;4972096;28;19922;-82
2021/03/13 05:21:52;;;;;;;;;;;;;;;2.53;100.00;96068.44;4970499;28;19999;-82
2021/03/13 05:24:20;;;;;;;;;;;;;;;2.55;100.00;96071.53;4951577;29;19927;-82
2021/03/13 05:26:46;;;;;;;;;;;;;;;2.60;100.00;96097.78;4966278;28;19922;-82
2021/03/13 05:29:13;;;;;;;;;;;;;;;2.65;100.00;96097.97;4963992;28;19944;-82
2021/03/13 05:31:41;;;;;;;;;;;;;;;2.70;100.00;96102.16;4968200;28;20293;-82
2021/03/13 05:34:07;;;;;;;;;;;;;;;2.73;100.00;96090.25;4962399;28;20373;-83
2021/03/13 05:36:34;;;;;;;;;;;;;;;2.73;100.00;96112.31;4970311;28;19929;-82
2021/03/13 05:39:01;;;;;;;;;;;;;;;2.70;100.00;96104.91;4954572;28;20293;-82
2021/03/13 05:41:27;;;;;;;;;;;;;;;2.72;100.00;96116.28;4971996;28;20006;-82
2021/03/13 05:43:55;;;;;;;;;;;;;;;2.71;100.00;96109.22;4954555;28;20308;-82
2021/03/13 05:46:22;;;;;;;;;;;;;;;2.75;100.00;96121.69;4971583;28;19926;-83
2021/03/13 05:48:50;;;;;;;;;;;;;;;2.82;100.00;96131.69;4971646;28;19922;-82
2021/03/13 05:51:17;;;;;;;;;;;;;;;2.86;100.00;96126.88;4971522;28;20112;-82
2021/03/13 05:53:44;;;;;;;;;;;;;;;2.80;100.00;96143.16;4970290;28;19961;-82
2021/03/13 05:56:11;;;;;;;;;;;;;;;2.77;100.00;96146.81;4986593;28;19926;-82
2021/03/13 05:58:38;;;;;;;;;;;;;;;2.69;100.00;96150.25;4957914;28;19929;-82
2021/03/13 06:01:08;;;;;;;;;;;;;;;2.69;100.00;96155.75;4971603;28;19929;-82
2021/03/13 06:03:34;;;;;;;;;;;;;;;2.67;100.00;96163.69;5042827;28;19949;-82
2021/03/13 06:06:01;;;;;;;;;;;;;;;2.66;100.00;96173.19;4957114;28;19926;-82
2021/03/13 06:08:29;;;;;;;;;;;;;;;2.62;100.00;96172.53;4970768;28;19922;-82
2021/03/13 06:10:56;;;;;;;;;;;;;;;2.59;100.00;96173.41;4970237;28;19922;-82
2021/03/13 06:13:23;;;;;;;;;;;;;;;2.53;100.00;96177.94;4966513;28;20063;-83
2021/03/13 06:15:50;;;;;;;;;;;;;;;2.44;100.00;96195.09;4971631;28;19925;-82
2021/03/13 06:18:17;;;;;;;;;;;;;;;2.41;100.00;96225.53;4984171;28;19948;-82
2021/03/13 06:20:44;;;;;;;;;;;;;;;2.33;100.00;96232.44;4969891;28;20292;-82
2021/03/13 06:23:12;;;;;;;;;;;;;;;2.32;100.00;96231.66;4971272;28;20004;-83
2021/03/13 06:25:39;;;;;;;;;;;;;;;2.33;100.00;96240.72;4970558;28;19928;-83
2021/03/13 06:28:18;;;;;;;;;;;;;;;2.26;100.00;96238.16;4970079;28;19922;-83
2021/03/13 06:30:45;;;;;;;;;;;;;;;2.09;100.00;96300.00;4986336;28;19922;-83
2021/03/13 06:33:28;;;;;;;;;;;;;;;1.94;100.00;96323.63;4971033;28;19922;-82
2021/03/13 06:36:00;;;;;;;;;;;;;;;1.82;100.00;96336.09;4969955;28;19983;-82
2021/03/13 06:38:29;;;;;;;;;;;;;;;1.73;100.00;96344.97;4972395;28;19922;-83
2021/03/13 06:41:08;;;;;;;;;;;;;;;1.62;100.00;96349.94;4970089;28;19922;-82
2021/03/13 06:43:35;;;;;;;;;;;;;;;1.67;100.00;96346.69;4982147;28;20016;-82
2021/03/13 06:46:04;;;;;;;;;;;;;;;1.75;100.00;96345.31;4960115;28;19926;-81
2021/03/13 06:48:37;;;;;;;;;;;;;;;1.83;100.00;96354.94;4966304;28;20377;-81
2021/03/13 06:51:13;;;;;;;;;;;;;;;1.85;100.00;96373.78;4953914;28;19922;-81
2021/03/13 06:53:39;;;;;;;;;;;;;;;1.86;100.00;96365.06;4958761;28;19953;-83
2021/03/13 06:56:11;;;;;;;;;;;;;;;1.94;100.00;96364.91;4969073;28;20378;-84
2021/03/13 06:59:03;;;;;;;;;;;;;;;1.98;100.00;96382.91;4953296;28;19922;-83
2021/03/13 07:01:30;;;;;;;;;;;;;;;2.07;100.00;96393.31;4950390;28;20021;-83
2021/03/13 07:03:58;;;;;;;;;;;;;;;2.09;100.00;96401.91;4968737;28;20324;-83
2021/03/13 07:06:25;;;;;;;;;;;;;;;2.16;100.00;96410.00;4964640;28;20077;-83
2021/03/13 07:08:53;;;;;;;;;;;;;;;2.18;100.00;96424.13;4984451;28;20009;-84
2021/03/13 07:11:24;;;;;;;;;;;;;;;2.19;100.00;96436.66;4953082;28;20369;-83
2021/03/13 07:13:54;;;;;;;;;;;;;;;2.11;100.00;96429.78;4953039;28;20396;-83
2021/03/13 07:16:21;;;;;;;;;;;;;;;2.01;100.00;96447.34;4969286;28;20352;-84
2021/03/13 07:18:48;;;;;;;;;;;;;;;1.95;100.00;96449.06;4937220;28;19922;-83
2021/03/13 07:21:16;;;;;;;;;;;;;;;1.95;100.00;96455.34;4969512;28;19922;-83
2021/03/13 07:23:43;;;;;;;;;;;;;;;2.13;100.00;96447.44;4967773;28;20444;-83
2021/03/13 07:26:10;;;;;;;;;;;;;;;2.25;100.00;96452.25;4934271;28;19929;-84
2021/03/13 07:28:39;;;;;;;;;;;;;;;2.34;100.00;96465.41;4967088;28;19930;-84
2021/03/13 07:31:08;;;;;;;;;;;;;;;2.50;100.00;96488.22;4968328;28;20377;-83
2021/03/13 07:33:37;;;;;;;;;;;;;;;2.45;100.00;96499.78;4968503;28;19922;-83
2021/03/13 07:36:07;;;;;;;;;;;;;;;2.46;100.00;96506.03;4969521;28;19928;-84
2021/03/13 07:38:37;;;;;;;;;;;;;;;2.53;100.00;96516.91;4971805;28;20011;-83
2021/03/13 07:41:04;;;;;;;;;;;;;;;2.67;100.00;96527.56;4969595;28;19929;-84
2021/03/13 07:43:32;;;;;;;;;;;;;;;2.76;100.00;96538.75;4972000;28;20634;-84
2021/03/13 07:45:59;;;;;;;;;;;;;;;2.75;100.00;96551.78;4954032;28;20450;-84
2021/03/13 07:48:27;;;;;;;7.75;1.42;;;;;;;2.79;100.00;96551.69;4955532;28;19933;-84
2021/03/13 07:50:56;;;;;;;7.00;1.10;;;;;;;2.86;100.00;96534.97;4972023;28;20031;-83
2021/03/13 07:53:23;;;;;;;5.95;1.25;;;;;;;2.93;100.00;96530.03;4971297;28;20131;-79
2021/03/13 07:55:51;;;;;;;1.85;0.82;;;;;;;3.00;100.00;96573.22;4959352;28;20093;-91
2021/03/13 07:58:22;;;;;;;4.10;1.10;;;;;;;2.87;100.00;96572.34;4919496;28;20043;-91
2021/03/13 08:00:50;;;;;;;;;;;;;;;3.02;100.00;96614.91;5024447;28;19930;-88
2021/03/13 08:03:32;;;;;;;4.22;1.02;;;;;;;3.02;100.00;96615.72;4955846;28;19979;-87
2021/03/13 08:06:01;;;;;;;8.13;1.30;;;;;;;3.05;100.00;96614.84;4949060;28;20088;-87
2021/03/13 08:08:43;;;;;;;6.90;1.05;;;;;;;3.09;100.00;96642.34;4971815;28;20047;-87
2021/03/13 08:11:14;;;;;;;1.88;0.60;;;;;;;2.63;100.00;96682.06;4934517;28;19933;-87
2021/03/13 08:13:40;;;;;;;;;;;;;;;2.64;100.00;96682.81;4965229;28;20050;-89
2021/03/13 08:16:08;;;;;;;;;;;;;;;2.71;100.00;96686.19;4942972;28;20079;-84
2021/03/13 08:18:45;;;;;;;0.40;0.40;;;;;;;2.77;100.00;96675.44;4972207;28;19949;-89
2021/03/13 08:21:18;;;;;;;;;;;;;;;2.84;100.00;96694.56;4972928;28;19953;-95
2021/03/13 08:23:59;;;;;;;1.55;0.57;;;;;;;2.85;100.00;96685.06;4945490;28;20409;-84
2021/03/13 08:26:35;;;;;;;0.50;0.50;;;;;;;2.97;100.00;96684.41;4959088;28;20042;-83
2021/03/13 08:29:11;;;;;;;1.42;0.90;;;;;;;2.96;100.00;96726.97;4944726;28;20494;-83
2021/03/13 08:31:44;;;;;;;0.50;0.50;;;;;;;2.95;100.00;96728.19;4968545;28;20035;-84
2021/03/13 08:34:11;;;;;;;0.60;0.57;;;;;;;2.99;100.00;96726.91;4966459;28;20039;-85
2021/03/13 08:36:47;;;;;;;1.05;0.60;;;;;;;2.89;100.00;96752.72;4951146;28;20078;-87
2021/03/13 08:39:18;;;;;;;0.85;0.60;;;;;;;2.90;100.00;96806.72;4950419;28;20050;-85
2021/03/13 08:41:52;;;;;;;0.50;0.50;;;;;;;2.85;100.00;96821.00;4948102;28;20058;-88
2021/03/13 08:44:18;;;;;;;1.40;0.75;;;;;;;2.82;100.00;96832.09;4925720;28;20410;-90
2021/03/13 08:46:48;;;;;;;;;;;;;;;2.83;100.00;96844.69;4945748;28;20091;-90
2021/03/13 08:49:22;;;;;;;0.98;0.52;;;;;;;2.76;100.00;96840.09;4974143;28;19930;-90
2021/03/13 08:52:09;;;;;;;0.70;0.40;;;;;;;2.57;100.00;96837.34;4951770;28;20115;-88
2021/03/13 08:54:37;;;;;;;;;;;;;;;2.69;100.00;96880.81;4978467;28;19980;-87
2021/03/13 08:57:04;;;;;;;;;;;;;;;2.60;100.00;96870.34;4950165;28;19941;-86
2021/03/13 08:59:32;;;;;;;0.55;0.50;;;;;;;2.35;100.00;96852.75;4938852;28;19979;-91
2021/03/13 09:02:06;;;;;;;0.60;0.40;;;;;;;2.35;100.00;96905.09;4936784;28;20056;-89
2021/03/13 09:04:34;;;;;;;;;;;;;;;2.43;100.00;96906.50;4939559;28;20101;-85
2021/03/13 09:07:01;;;;;;;;;;;;;;;2.58;100.00;96908.59;4969321;28;19960;-90
2021/03/13 09:09:31;;;;;;;;;;;;;;;2.66;100.00;96876.16;5065969;28;19926;-89
2021/03/13 09:12:10;;;;;;;;;;;;;;;2.83;100.00;96941.22;4956053;28;19923;-93
2021/03/13 09:14:51;;;;;;;;;;;;;;;2.96;100.00;96939.38;4922203;28;19933;-83
2021/03/13 09:17:18;;;;;;;;;;;;;;;2.96;100.00;96931.09;5018575;28;19926;-79
2021/03/13 09:19:47;;;;;;;7.47;1.00;;;;;;;2.87;100.00;96917.09;4949706;28;19926;-91
2021/03/13 09:22:24;;;;;;;5.40;1.10;;;;;;;2.92;100.00;96924.88;4936327;28;20043;-81
2021/03/13 09:24:52;;;;;;;6.40;1.35;;;;;;;2.89;100.00;96936.75;4949585;28;20496;-83
2021/03/13 09:27:27;;;;;;;5.40;2.00;;;;;;;2.73;100.00;96922.88;4967542;28;20048;-82
2021/03/13 09:29:56;;;;;;;8.00;2.05;;;;;;;3.03;100.00;96947.53;4962417;28;20046;-84
2021/03/13 09:32:24;;;;;;;13.07;1.83;;;;;;;3.12;100.00;96961.53;4963526;28;20042;-81
2021/03/13 09:34:54;;;;;;;7.97;1.67;;;;;;;3.30;100.00;96995.81;4966525;28;20450;-82
2021/03/13 09:37:26;;;;;;;6.68;1.90;;;;;;;3.43;100.00;96991.22;4969139;28;20277;-82
2021/03/13 09:40:04;;;;;;;11.75;1.70;;;;;;;3.39;100.00;96990.50;4931383;28;20154;-82
2021/03/13 09:42:31;;;;;;;12.57;2.13;;;;;;;3.46;100.00;97008.91;4964991;28;20367;-81
2021/03/13 09:45:05;;;;;;;7.43;1.45;;;;;;;3.58;100.00;97013.78;4963196;28;20128;-83
2021/03/13 09:47:33;;;;;;;12.80;2.90;;;;;;;3.66;100.00;97045.59;4946922;28;20043;-82
2021/03/13 09:50:05;;;;;;;;;;;;;;;3.66;100.00;97012.44;4963914;28;19926;-83
2021/03/13 09:52:33;;;;;;;;;;;;;;;3.73;100.00;97023.31;4979903;28;20040;-83
2021/03/13 09:55:00;;;;;;;;;;;;;;;3.83;100.00;97033.38;4969844;28;19922;-82
2021/03/13 09:57:27;;;;;;;14.77;1.75;;;;;;;3.90;100.00;96999.28;4998939;28;20032;-83
2021/03/13 09:59:54;;;;;;;;;;;;;;;4.05;100.00;97026.16;4952121;28;20066;-83
2021/03/13 10:02:22;;;;;;;;;;;;;;;4.06;100.00;97029.72;4953367;28;20369;-80
2021/03/13 10:04:50;;;;;;;7.60;2.50;;;;;;;4.09;100.00;96999.22;4956684;28;20028;-82
2021/03/13 10:07:24;;;;;;;8.27;1.73;;;;;;;4.05;100.00;96981.94;4965831;28;20113;-83
2021/03/13 10:09:59;;;;;;;3.47;1.25;;;;;;;4.18;100.00;96973.78;4947913;28;20042;-79
2021/03/13 10:12:30;;;;;;;11.85;1.67;;;;;;;4.29;100.00;96966.75;4960561;28;20066;-81
2021/03/13 10:15:17;;;;;;;16.08;2.03;;;;;;;4.06;100.00;96917.19;4966418;28;20035;-80
2021/03/13 10:18:02;;;;;;;12.00;1.77;;;;;;;4.06;100.00;96847.34;4961828;28;20505;-82
2021/03/13 10:20:30;;;;;;;;;;;;;;;4.35;100.00;96854.44;4980661;28;20053;-86
2021/03/13 10:23:04;;;;;;;;;;;;;;;4.41;100.00;96841.66;4970431;28;19922;-88
2021/03/13 10:25:31;;;;;;;;;;;;;;;4.56;100.00;96848.34;4969252;28;20079;-86
2021/03/13 10:28:05;;;;;;;;;;;;;;;4.53;100.00;96843.69;4969863;28;19926;-85
2021/03/13 10:30:32;;;;;;;;;;;;;;;4.50;100.00;96824.44;4956311;28;19930;-85
2021/03/13 10:33:00;;;;;;;;;;;;;;;4.41;100.00;96814.00;4980878;28;19927;-86
2021/03/13 10:35:28;;;;;;;;;;;;;;;4.24;100.00;96782.09;4968316;28;19933;-88
2021/03/13 10:38:03;;;;;;;14.38;3.65;;;;;;;4.13;100.00;96781.63;4979862;28;19956;-86
2021/03/13 10:40:42;;;;;;;17.73;3.10;;;;;;;4.22;100.00;96762.41;4958079;28;20037;-86
2021/03/13 10:43:10;;;;;;;9.20;2.10;;;;;;;4.38;100.00;96762.34;4938088;28;20394;-86
2021/03/13 10:45:38;;;;;;;9.50;2.35;;;;;;;4.56;100.00;96764.63;4955080;28;20035;-87
2021/03/13 10:48:09;;;;;;;8.80;1.90;;;;;;;4.63;100.00;96709.88;4938659;28;20053;-87
2021/03/13 10:50:38;;;;;;;11.80;1.85;;;;;;;4.81;100.00;96665.84;4949940;28;20070;-87
2021/03/13 10:53:23;;;;;;;;;;;;;;;5.17;100.00;96699.47;4967387;28;20133;-84
2021/03/13 10:55:57;;;;;;;;;;;;;;;4.99;100.00;96688.22;4969739;28;19951;-87
2021/03/13 10:58:35;;;;;;;10.30;2.20;;;;;;;4.94;100.00;96680.44;4968726;28;19927;-87
2021/03/13 11:01:03;;;;;;;;;;;;;;;5.21;100.00;96660.63;4966916;28;20418;-89
2021/03/13 11:03:30;;;;;;;8.30;1.58;;;;;;;5.36;100.00;96651.38;4957601;28;20015;-90
2021/03/13 11:05:57;;;;;;;;;;;;;;;5.40;100.00;96646.50;4952373;28;20042;-85
2021/03/13 11:08:25;;;;;;;;;;;;;;;5.40;100.00;96654.81;4954069;28;20365;-86
2021/03/13 11:10:53;;;;;;;;;;;;;;;5.25;100.00;96628.84;4971467;28;19926;-87
2021/03/13 11:13:20;;;;;;;;;;;;;;;5.30;100.00;96617.16;4973917;28;20383;-89
2021/03/13 11:15:47;;;;;;;;;;;;;;;5.22;100.00;96607.59;5066476;28;19922;-91
2021/03/13 11:18:14;;;;;;;;;;;;;;;5.48;100.00;96597.19;4944748;28;19922;-86
2021/03/13 11:20:42;;;;;;;;;;;;;;;5.40;100.00;96580.06;4974667;28;19922;-94
2021/03/13 11:23:09;;;;;;;;;;;;;;;5.18;100.00;96507.25;4960840;28;19922;-87
2021/03/13 11:25:36;;;;;;;;;;;;;;;4.99;100.00;96453.00;4967819;28;20014;-84
2021/03/13 11:28:07;;;;;;;;;;;;;;;5.15;100.00;96472.19;4942457;28;19923;-84
2021/03/13 11:30:34;;;;;;;;;;;;;;;5.27;100.00;96459.53;4963992;28;20029;-85
2021/03/13 11:33:00;;;;;;;;;;;;;;;5.40;100.00;96466.53;4985080;28;20369;-84
2021/03/13 11:35:27;;;;;;;;;;;;;;;5.07;100.00;96481.94;4970388;28;19928;-83
2021/03/13 11:37:55;;;;;;;9.27;1.52;;;;;;;4.49;100.00;96453.16;5012376;28;20017;-82
2021/03/13 11:40:22;;;;;;;;;;;;;;;4.63;100.00;96480.34;4973205;28;20043;-83
2021/03/13 11:42:54;;;;;;;12.27;1.95;;;;;;;4.82;100.00;96462.69;4970842;28;19922;-83
2021/03/13 11:45:22;;;;;;;10.32;1.52;;;;;;;5.04;100.00;96480.06;4942266;28;20054;-85
2021/03/13 11:47:49;;;;;;;8.27;2.00;;;;;;;4.79;100.00;96480.19;4970548;28;20122;-84
2021/03/13 11:50:18;;;;;;;17.63;1.63;;;;;;;4.58;100.00;96442.19;4970955;28;20043;-86
2021/03/13 11:52:45;;;;;;;11.00;2.15;;;;;;;4.34;100.00;96476.19;5039118;28;20066;-88
2021/03/13 11:55:12;;;;;;;;;;;;;;;4.50;100.00;96498.19;5040020;28;20046;-84
2021/03/13 11:57:53;;;;;;;6.00;1.67;;;;;;;4.73;100.00;96497.78;4947837;28;19933;-87
2021/03/13 12:00:20;;;;;;;8.52;1.90;;;;;;;4.97;100.00;96463.72;5017448;28;20058;-86
2021/03/13 12:02:47;;;;;;;10.68;2.00;;;;;;;5.18;100.00;96446.38;4951844;28;20400;-82
2021/03/13 12:05:14;;;;;;;5.45;1.30;;;;;;;5.08;100.00;96480.75;4956966;28;20047;-85
2021/03/13 12:07:41;;;;;;;5.70;1.25;;;;;;;5.15;100.00;96488.78;4994866;28;20033;-85
2021/03/13 12:10:09;;;;;;;7.88;1.83;;;;;;;5.12;100.00;96500.75;4978881;28;20116;-88
2021/03/13 12:12:37;;;;;;;17.40;1.80;;;;;;;5.13;100.00;96505.09;5016308;28;20121;-83
2021/03/13 12:15:06;;;;;;;7.88;1.95;;;;;;;5.40;100.00;96519.16;4960771;28;20043;-85
2021/03/13 12:17:33;;;;;;;14.45;1.83;;;;;;;5.48;100.00;96500.28;4973140;28;20035;-85
2021/03/13 12:20:00;;;;;;;7.45;1.60;;;;;;;5.75;100.00;96530.13;4953665;28;20457;-94
2021/03/13 12:22:27;;;;;;;10.00;1.27;;;;;;;5.50;100.00;96531.03;4932909;28;20063;-90
2021/03/13 12:24:54;;;;;;;12.10;2.08;;;;;;;5.21;100.00;96550.66;4941553;28;20060;-93
2021/03/13 12:27:22;;;;;;;12.90;1.90;;;;;;;4.93;100.00;96537.81;4957048;28;20043;-89
2021/03/13 12:29:50;;;;;;;9.68;1.73;;;;;;;4.99;100.00;96535.22;4972292;28;20046;-83